sensor_id;sensor_type;location;lat;lon;timestamp;P1;durP1;ratioP1;P2;durP2;ratioP2
22449;SDS011;11392;57.390;-2.468;2024-01-25T00:01:23;4.53;;;1.52;;
22449;SDS011;11392;57.390;-2.468;2024-01-25T00:03:50;7.57;;;1.67;;
22449;SDS011;11392;57.390;-2.468;2024-01-25T00:06:17;5.60;;;1.35;;
22449;SDS011;11392;57.390;-2.468;2024-01-25T00:08:44;4.07;;;1.50;;
22449;SDS011;11392;57.390;-2.468;2024-01-25T00:11:11;3.15;;;1.27;;
22449;SDS011;11392;57.390;-2.468;2024-01-25T00:13:39;5.72;;;1.40;;
22449;SDS011;11392;57.390;-2.468;2024-01-25T00:16:06;8.00;;;1.52;;
22449;SDS011;11392;57.390;-2.468;2024-01-25T00:18:33;5.03;;;1.98;;
22449;SDS011;11392;57.390;-2.468;2024-01-25T00:21:00;7.85;;;2.17;;
22449;SDS011;11392;57.390;-2.468;2024-01-25T00:23:27;3.83;;;1.33;;
22449;SDS011;11392;57.390;-2.468;2024-01-25T00:25:55;5.53;;;1.65;;
22449;SDS011;11392;57.390;-2.468;2024-01-25T00:28:25;8.10;;;1.90;;
22449;SDS011;11392;57.390;-2.468;2024-01-25T00:30:52;6.38;;;1.90;;
22449;SDS011;11392;57.390;-2.468;2024-01-25T00:33:19;11.38;;;2.03;;
22449;SDS011;11392;57.390;-2.468;2024-01-25T00:35:47;5.72;;;1.98;;
22449;SDS011;11392;57.390;-2.468;2024-01-25T00:38:14;12.93;;;3.10;;
22449;SDS011;11392;57.390;-2.468;2024-01-25T00:40:42;5.82;;;1.40;;
22449;SDS011;11392;57.390;-2.468;2024-01-25T00:43:09;3.80;;;1.83;;
22449;SDS011;11392;57.390;-2.468;2024-01-25T00:45:37;11.05;;;2.42;;
22449;SDS011;11392;57.390;-2.468;2024-01-25T00:48:04;1.88;;;1.30;;
22449;SDS011;11392;57.390;-2.468;2024-01-25T00:50:32;7.70;;;1.52;;
22449;SDS011;11392;57.390;-2.468;2024-01-25T00:52:59;3.00;;;1.17;;
22449;SDS011;11392;57.390;-2.468;2024-01-25T00:55:27;6.68;;;1.75;;
22449;SDS011;11392;57.390;-2.468;2024-01-25T00:57:54;5.47;;;2.13;;
22449;SDS011;11392;57.390;-2.468;2024-01-25T01:00:22;4.30;;;1.48;;
22449;SDS011;11392;57.390;-2.468;2024-01-25T01:02:50;4.95;;;1.55;;
22449;SDS011;11392;57.390;-2.468;2024-01-25T01:05:19;6.35;;;1.50;;
22449;SDS011;11392;57.390;-2.468;2024-01-25T01:07:47;3.42;;;1.35;;
22449;SDS011;11392;57.390;-2.468;2024-01-25T01:10:16;8.13;;;1.55;;
22449;SDS011;11392;57.390;-2.468;2024-01-25T01:12:43;4.95;;;1.48;;
22449;SDS011;11392;57.390;-2.468;2024-01-25T01:15:11;5.50;;;1.80;;
22449;SDS011;11392;57.390;-2.468;2024-01-25T01:17:38;5.85;;;1.40;;
22449;SDS011;11392;57.390;-2.468;2024-01-25T01:20:05;4.65;;;1.60;;
22449;SDS011;11392;57.390;-2.468;2024-01-25T01:22:33;4.70;;;2.25;;
22449;SDS011;11392;57.390;-2.468;2024-01-25T01:25:00;8.00;;;1.88;;
22449;SDS011;11392;57.390;-2.468;2024-01-25T01:27:27;4.30;;;1.42;;
22449;SDS011;11392;57.390;-2.468;2024-01-25T01:29:54;6.93;;;1.67;;
22449;SDS011;11392;57.390;-2.468;2024-01-25T01:32:21;8.85;;;1.40;;
22449;SDS011;11392;57.390;-2.468;2024-01-25T01:34:48;6.90;;;2.00;;
22449;SDS011;11392;57.390;-2.468;2024-01-25T01:37:15;8.07;;;2.00;;
22449;SDS011;11392;57.390;-2.468;2024-01-25T01:39:43;6.82;;;1.58;;
22449;SDS011;11392;57.390;-2.468;2024-01-25T01:42:10;3.47;;;1.65;;
22449;SDS011;11392;57.390;-2.468;2024-01-25T01:44:37;6.25;;;1.63;;
22449;SDS011;11392;57.390;-2.468;2024-01-25T01:47:05;5.93;;;1.58;;
22449;SDS011;11392;57.390;-2.468;2024-01-25T01:49:33;6.45;;;1.60;;
22449;SDS011;11392;57.390;-2.468;2024-01-25T01:52:01;8.38;;;2.13;;
22449;SDS011;11392;57.390;-2.468;2024-01-25T01:54:28;5.13;;;1.77;;
22449;SDS011;11392;57.390;-2.468;2024-01-25T01:56:56;6.55;;;2.17;;
22449;SDS011;11392;57.390;-2.468;2024-01-25T01:59:23;11.13;;;2.97;;
22449;SDS011;11392;57.390;-2.468;2024-01-25T02:01:52;9.38;;;1.95;;
22449;SDS011;11392;57.390;-2.468;2024-01-25T02:04:20;5.05;;;1.58;;
22449;SDS011;11392;57.390;-2.468;2024-01-25T02:06:47;10.75;;;2.65;;
22449;SDS011;11392;57.390;-2.468;2024-01-25T02:09:14;7.32;;;1.73;;
22449;SDS011;11392;57.390;-2.468;2024-01-25T02:11:41;4.75;;;1.65;;
22449;SDS011;11392;57.390;-2.468;2024-01-25T02:14:08;5.18;;;1.63;;
22449;SDS011;11392;57.390;-2.468;2024-01-25T02:16:38;6.80;;;1.83;;
22449;SDS011;11392;57.390;-2.468;2024-01-25T02:19:13;8.35;;;2.33;;
22449;SDS011;11392;57.390;-2.468;2024-01-25T02:21:43;9.85;;;1.70;;
22449;SDS011;11392;57.390;-2.468;2024-01-25T02:24:13;6.30;;;1.50;;
22449;SDS011;11392;57.390;-2.468;2024-01-25T02:26:43;3.47;;;1.33;;
22449;SDS011;11392;57.390;-2.468;2024-01-25T02:29:12;5.50;;;1.20;;
22449;SDS011;11392;57.390;-2.468;2024-01-25T02:31:38;5.93;;;1.63;;
22449;SDS011;11392;57.390;-2.468;2024-01-25T02:34:05;7.43;;;2.20;;
22449;SDS011;11392;57.390;-2.468;2024-01-25T02:36:33;8.68;;;1.83;;
22449;SDS011;11392;57.390;-2.468;2024-01-25T02:39:00;2.50;;;1.20;;
22449;SDS011;11392;57.390;-2.468;2024-01-25T02:41:36;4.88;;;1.45;;
22449;SDS011;11392;57.390;-2.468;2024-01-25T02:44:03;7.45;;;1.42;;
22449;SDS011;11392;57.390;-2.468;2024-01-25T02:46:30;5.57;;;1.73;;
22449;SDS011;11392;57.390;-2.468;2024-01-25T02:48:58;3.72;;;1.50;;
22449;SDS011;11392;57.390;-2.468;2024-01-25T02:51:25;4.60;;;1.38;;
22449;SDS011;11392;57.390;-2.468;2024-01-25T02:53:54;5.07;;;1.40;;
22449;SDS011;11392;57.390;-2.468;2024-01-25T02:56:21;3.88;;;1.13;;
22449;SDS011;11392;57.390;-2.468;2024-01-25T02:58:48;3.83;;;1.20;;
22449;SDS011;11392;57.390;-2.468;2024-01-25T03:01:16;5.43;;;1.67;;
22449;SDS011;11392;57.390;-2.468;2024-01-25T03:03:43;8.70;;;1.83;;
22449;SDS011;11392;57.390;-2.468;2024-01-25T03:06:10;7.05;;;1.90;;
22449;SDS011;11392;57.390;-2.468;2024-01-25T03:08:37;8.82;;;1.98;;
22449;SDS011;11392;57.390;-2.468;2024-01-25T03:11:04;8.95;;;2.33;;
22449;SDS011;11392;57.390;-2.468;2024-01-25T03:13:31;6.43;;;1.77;;
22449;SDS011;11392;57.390;-2.468;2024-01-25T03:16:00;4.97;;;1.40;;
22449;SDS011;11392;57.390;-2.468;2024-01-25T03:18:28;6.65;;;1.63;;
22449;SDS011;11392;57.390;-2.468;2024-01-25T03:20:55;9.63;;;2.10;;
22449;SDS011;11392;57.390;-2.468;2024-01-25T03:23:24;6.32;;;1.83;;
22449;SDS011;11392;57.390;-2.468;2024-01-25T03:25:51;5.45;;;1.70;;
22449;SDS011;11392;57.390;-2.468;2024-01-25T03:28:18;8.93;;;2.17;;
22449;SDS011;11392;57.390;-2.468;2024-01-25T03:30:45;9.07;;;1.77;;
22449;SDS011;11392;57.390;-2.468;2024-01-25T03:33:12;7.28;;;1.80;;
22449;SDS011;11392;57.390;-2.468;2024-01-25T03:35:39;5.63;;;1.90;;
22449;SDS011;11392;57.390;-2.468;2024-01-25T03:38:06;4.40;;;1.40;;
22449;SDS011;11392;57.390;-2.468;2024-01-25T03:40:33;7.70;;;2.20;;
22449;SDS011;11392;57.390;-2.468;2024-01-25T03:43:00;11.82;;;2.38;;
22449;SDS011;11392;57.390;-2.468;2024-01-25T03:45:44;6.18;;;1.63;;
22449;SDS011;11392;57.390;-2.468;2024-01-25T03:48:11;5.85;;;1.80;;
22449;SDS011;11392;57.390;-2.468;2024-01-25T03:50:39;4.55;;;1.60;;
22449;SDS011;11392;57.390;-2.468;2024-01-25T03:53:06;5.88;;;1.65;;
22449;SDS011;11392;57.390;-2.468;2024-01-25T03:55:33;4.80;;;1.95;;
22449;SDS011;11392;57.390;-2.468;2024-01-25T03:58:00;7.53;;;1.85;;
22449;SDS011;11392;57.390;-2.468;2024-01-25T04:00:28;7.50;;;1.90;;
22449;SDS011;11392;57.390;-2.468;2024-01-25T04:02:55;8.00;;;2.45;;
22449;SDS011;11392;57.390;-2.468;2024-01-25T04:05:22;6.20;;;1.65;;
22449;SDS011;11392;57.390;-2.468;2024-01-25T04:07:49;4.03;;;1.38;;
22449;SDS011;11392;57.390;-2.468;2024-01-25T04:10:16;4.15;;;1.50;;
22449;SDS011;11392;57.390;-2.468;2024-01-25T04:12:43;8.68;;;2.20;;
22449;SDS011;11392;57.390;-2.468;2024-01-25T04:15:10;4.90;;;1.50;;
22449;SDS011;11392;57.390;-2.468;2024-01-25T04:17:37;7.97;;;3.22;;
22449;SDS011;11392;57.390;-2.468;2024-01-25T04:20:05;7.97;;;2.08;;
22449;SDS011;11392;57.390;-2.468;2024-01-25T04:22:33;10.55;;;1.88;;
22449;SDS011;11392;57.390;-2.468;2024-01-25T04:25:00;6.07;;;2.00;;
22449;SDS011;11392;57.390;-2.468;2024-01-25T04:27:27;4.32;;;1.70;;
22449;SDS011;11392;57.390;-2.468;2024-01-25T04:29:54;7.53;;;2.40;;
22449;SDS011;11392;57.390;-2.468;2024-01-25T04:32:21;7.22;;;1.70;;
22449;SDS011;11392;57.390;-2.468;2024-01-25T04:34:48;5.75;;;1.42;;
22449;SDS011;11392;57.390;-2.468;2024-01-25T04:37:15;8.27;;;1.88;;
22449;SDS011;11392;57.390;-2.468;2024-01-25T04:39:43;6.85;;;2.00;;
22449;SDS011;11392;57.390;-2.468;2024-01-25T04:42:10;2.88;;;1.30;;
22449;SDS011;11392;57.390;-2.468;2024-01-25T04:44:37;11.35;;;2.45;;
22449;SDS011;11392;57.390;-2.468;2024-01-25T04:47:04;3.92;;;1.77;;
22449;SDS011;11392;57.390;-2.468;2024-01-25T04:49:31;5.13;;;1.48;;
22449;SDS011;11392;57.390;-2.468;2024-01-25T04:51:58;5.22;;;1.40;;
22449;SDS011;11392;57.390;-2.468;2024-01-25T04:54:25;4.82;;;1.63;;
22449;SDS011;11392;57.390;-2.468;2024-01-25T04:56:53;8.10;;;1.40;;
22449;SDS011;11392;57.390;-2.468;2024-01-25T04:59:20;7.10;;;1.92;;
22449;SDS011;11392;57.390;-2.468;2024-01-25T05:01:48;6.43;;;1.42;;
22449;SDS011;11392;57.390;-2.468;2024-01-25T05:04:16;6.15;;;1.80;;
22449;SDS011;11392;57.390;-2.468;2024-01-25T05:06:43;4.55;;;1.10;;
22449;SDS011;11392;57.390;-2.468;2024-01-25T05:09:10;3.35;;;1.20;;
22449;SDS011;11392;57.390;-2.468;2024-01-25T05:11:38;5.95;;;1.20;;
22449;SDS011;11392;57.390;-2.468;2024-01-25T05:14:06;4.57;;;1.42;;
22449;SDS011;11392;57.390;-2.468;2024-01-25T05:16:33;4.75;;;1.60;;
22449;SDS011;11392;57.390;-2.468;2024-01-25T05:19:01;8.50;;;3.10;;
22449;SDS011;11392;57.390;-2.468;2024-01-25T05:21:29;4.82;;;1.50;;
22449;SDS011;11392;57.390;-2.468;2024-01-25T05:23:56;5.68;;;1.52;;
22449;SDS011;11392;57.390;-2.468;2024-01-25T05:26:23;7.78;;;2.15;;
22449;SDS011;11392;57.390;-2.468;2024-01-25T05:28:50;5.43;;;1.90;;
22449;SDS011;11392;57.390;-2.468;2024-01-25T05:31:17;4.53;;;1.50;;
22449;SDS011;11392;57.390;-2.468;2024-01-25T05:33:44;8.15;;;2.85;;
22449;SDS011;11392;57.390;-2.468;2024-01-25T05:36:11;7.35;;;1.67;;
22449;SDS011;11392;57.390;-2.468;2024-01-25T05:38:40;5.15;;;1.30;;
22449;SDS011;11392;57.390;-2.468;2024-01-25T05:41:07;7.57;;;1.63;;
22449;SDS011;11392;57.390;-2.468;2024-01-25T05:43:34;5.72;;;1.67;;
22449;SDS011;11392;57.390;-2.468;2024-01-25T05:46:01;3.55;;;1.40;;
22449;SDS011;11392;57.390;-2.468;2024-01-25T05:48:30;4.70;;;1.75;;
22449;SDS011;11392;57.390;-2.468;2024-01-25T05:50:58;5.35;;;1.50;;
22449;SDS011;11392;57.390;-2.468;2024-01-25T05:53:25;7.90;;;2.47;;
22449;SDS011;11392;57.390;-2.468;2024-01-25T05:55:52;9.60;;;2.67;;
22449;SDS011;11392;57.390;-2.468;2024-01-25T05:58:19;4.80;;;2.03;;
22449;SDS011;11392;57.390;-2.468;2024-01-25T06:00:46;9.45;;;1.73;;
22449;SDS011;11392;57.390;-2.468;2024-01-25T06:03:13;4.18;;;1.58;;
22449;SDS011;11392;57.390;-2.468;2024-01-25T06:05:40;4.07;;;1.73;;
22449;SDS011;11392;57.390;-2.468;2024-01-25T06:08:08;6.10;;;1.80;;
22449;SDS011;11392;57.390;-2.468;2024-01-25T06:10:35;6.00;;;1.80;;
22449;SDS011;11392;57.390;-2.468;2024-01-25T06:13:03;7.57;;;1.25;;
22449;SDS011;11392;57.390;-2.468;2024-01-25T06:15:30;7.35;;;2.45;;
22449;SDS011;11392;57.390;-2.468;2024-01-25T06:17:58;5.28;;;1.55;;
22449;SDS011;11392;57.390;-2.468;2024-01-25T06:20:25;5.07;;;2.22;;
22449;SDS011;11392;57.390;-2.468;2024-01-25T06:22:52;10.75;;;2.15;;
22449;SDS011;11392;57.390;-2.468;2024-01-25T06:25:19;9.30;;;1.95;;
22449;SDS011;11392;57.390;-2.468;2024-01-25T06:27:46;13.80;;;2.42;;
22449;SDS011;11392;57.390;-2.468;2024-01-25T06:30:15;4.13;;;1.85;;
22449;SDS011;11392;57.390;-2.468;2024-01-25T06:32:42;4.15;;;1.75;;
22449;SDS011;11392;57.390;-2.468;2024-01-25T06:35:09;8.48;;;2.13;;
22449;SDS011;11392;57.390;-2.468;2024-01-25T06:37:36;6.07;;;1.50;;
22449;SDS011;11392;57.390;-2.468;2024-01-25T06:40:03;9.52;;;2.40;;
22449;SDS011;11392;57.390;-2.468;2024-01-25T06:42:32;7.47;;;1.95;;
22449;SDS011;11392;57.390;-2.468;2024-01-25T06:44:59;4.80;;;1.90;;
22449;SDS011;11392;57.390;-2.468;2024-01-25T06:47:26;8.23;;;2.13;;
22449;SDS011;11392;57.390;-2.468;2024-01-25T06:49:54;8.10;;;2.10;;
22449;SDS011;11392;57.390;-2.468;2024-01-25T06:52:21;9.95;;;2.28;;
22449;SDS011;11392;57.390;-2.468;2024-01-25T06:54:49;8.65;;;2.05;;
22449;SDS011;11392;57.390;-2.468;2024-01-25T06:57:16;17.30;;;3.08;;
22449;SDS011;11392;57.390;-2.468;2024-01-25T06:59:44;8.13;;;3.05;;
22449;SDS011;11392;57.390;-2.468;2024-01-25T07:02:11;7.20;;;3.00;;
22449;SDS011;11392;57.390;-2.468;2024-01-25T07:04:39;8.27;;;2.28;;
22449;SDS011;11392;57.390;-2.468;2024-01-25T07:07:08;12.48;;;2.45;;
22449;SDS011;11392;57.390;-2.468;2024-01-25T07:09:36;8.30;;;2.50;;
22449;SDS011;11392;57.390;-2.468;2024-01-25T07:12:03;9.60;;;2.10;;
22449;SDS011;11392;57.390;-2.468;2024-01-25T07:14:30;7.78;;;2.40;;
22449;SDS011;11392;57.390;-2.468;2024-01-25T07:16:58;10.73;;;2.20;;
22449;SDS011;11392;57.390;-2.468;2024-01-25T07:19:25;12.43;;;2.22;;
22449;SDS011;11392;57.390;-2.468;2024-01-25T07:21:52;5.93;;;2.15;;
22449;SDS011;11392;57.390;-2.468;2024-01-25T07:24:19;9.60;;;2.03;;
22449;SDS011;11392;57.390;-2.468;2024-01-25T07:26:46;11.40;;;2.78;;
22449;SDS011;11392;57.390;-2.468;2024-01-25T07:29:13;14.73;;;2.38;;
22449;SDS011;11392;57.390;-2.468;2024-01-25T07:31:40;10.63;;;2.58;;
22449;SDS011;11392;57.390;-2.468;2024-01-25T07:34:07;7.50;;;2.22;;
22449;SDS011;11392;57.390;-2.468;2024-01-25T07:36:34;7.90;;;2.10;;
22449;SDS011;11392;57.390;-2.468;2024-01-25T07:39:02;15.00;;;3.25;;
22449;SDS011;11392;57.390;-2.468;2024-01-25T07:41:29;5.90;;;1.75;;
22449;SDS011;11392;57.390;-2.468;2024-01-25T07:43:56;11.45;;;2.78;;
22449;SDS011;11392;57.390;-2.468;2024-01-25T07:46:23;9.18;;;2.80;;
22449;SDS011;11392;57.390;-2.468;2024-01-25T07:48:53;11.85;;;2.03;;
22449;SDS011;11392;57.390;-2.468;2024-01-25T07:51:20;8.35;;;2.08;;
22449;SDS011;11392;57.390;-2.468;2024-01-25T07:53:47;7.43;;;3.03;;
22449;SDS011;11392;57.390;-2.468;2024-01-25T07:56:14;6.95;;;1.95;;
22449;SDS011;11392;57.390;-2.468;2024-01-25T07:58:41;7.85;;;2.22;;
22449;SDS011;11392;57.390;-2.468;2024-01-25T08:01:08;12.27;;;3.47;;
22449;SDS011;11392;57.390;-2.468;2024-01-25T08:03:36;10.05;;;2.60;;
22449;SDS011;11392;57.390;-2.468;2024-01-25T08:06:04;11.93;;;2.17;;
22449;SDS011;11392;57.390;-2.468;2024-01-25T08:08:31;10.88;;;2.50;;
22449;SDS011;11392;57.390;-2.468;2024-01-25T08:10:58;9.75;;;2.53;;
22449;SDS011;11392;57.390;-2.468;2024-01-25T08:13:25;8.13;;;2.38;;
22449;SDS011;11392;57.390;-2.468;2024-01-25T08:15:59;10.45;;;2.40;;
22449;SDS011;11392;57.390;-2.468;2024-01-25T08:18:27;10.90;;;2.53;;
22449;SDS011;11392;57.390;-2.468;2024-01-25T08:20:56;9.00;;;2.85;;
22449;SDS011;11392;57.390;-2.468;2024-01-25T08:23:24;11.73;;;2.78;;
22449;SDS011;11392;57.390;-2.468;2024-01-25T08:25:51;14.35;;;3.75;;
22449;SDS011;11392;57.390;-2.468;2024-01-25T08:28:18;19.80;;;4.32;;
22449;SDS011;11392;57.390;-2.468;2024-01-25T08:30:46;9.25;;;2.85;;
22449;SDS011;11392;57.390;-2.468;2024-01-25T08:33:13;14.80;;;2.50;;
22449;SDS011;11392;57.390;-2.468;2024-01-25T08:35:41;11.13;;;3.25;;
22449;SDS011;11392;57.390;-2.468;2024-01-25T08:38:09;8.63;;;2.70;;
22449;SDS011;11392;57.390;-2.468;2024-01-25T08:40:36;11.68;;;2.83;;
22449;SDS011;11392;57.390;-2.468;2024-01-25T08:43:03;15.73;;;3.67;;
22449;SDS011;11392;57.390;-2.468;2024-01-25T08:45:31;10.45;;;3.00;;
22449;SDS011;11392;57.390;-2.468;2024-01-25T08:47:58;11.65;;;2.90;;
22449;SDS011;11392;57.390;-2.468;2024-01-25T08:50:27;8.45;;;2.83;;
22449;SDS011;11392;57.390;-2.468;2024-01-25T08:52:55;17.17;;;4.68;;
22449;SDS011;11392;57.390;-2.468;2024-01-25T08:55:22;12.02;;;3.03;;
22449;SDS011;11392;57.390;-2.468;2024-01-25T08:57:50;14.23;;;4.03;;
22449;SDS011;11392;57.390;-2.468;2024-01-25T09:00:17;10.18;;;3.45;;
22449;SDS011;11392;57.390;-2.468;2024-01-25T09:02:45;14.68;;;3.50;;
22449;SDS011;11392;57.390;-2.468;2024-01-25T09:05:12;11.25;;;3.58;;
22449;SDS011;11392;57.390;-2.468;2024-01-25T09:07:39;14.73;;;4.10;;
22449;SDS011;11392;57.390;-2.468;2024-01-25T09:10:08;11.52;;;3.90;;
22449;SDS011;11392;57.390;-2.468;2024-01-25T09:12:35;15.73;;;5.20;;
22449;SDS011;11392;57.390;-2.468;2024-01-25T09:15:03;12.30;;;3.75;;
22449;SDS011;11392;57.390;-2.468;2024-01-25T09:17:31;12.48;;;3.42;;
22449;SDS011;11392;57.390;-2.468;2024-01-25T09:19:59;12.65;;;4.60;;
22449;SDS011;11392;57.390;-2.468;2024-01-25T09:22:27;18.42;;;5.03;;
22449;SDS011;11392;57.390;-2.468;2024-01-25T09:24:54;14.50;;;4.63;;
22449;SDS011;11392;57.390;-2.468;2024-01-25T09:27:21;12.23;;;3.97;;
22449;SDS011;11392;57.390;-2.468;2024-01-25T09:29:48;15.00;;;5.15;;
22449;SDS011;11392;57.390;-2.468;2024-01-25T09:32:15;17.13;;;5.25;;
22449;SDS011;11392;57.390;-2.468;2024-01-25T09:34:43;20.52;;;4.97;;
22449;SDS011;11392;57.390;-2.468;2024-01-25T09:37:11;21.95;;;5.95;;
22449;SDS011;11392;57.390;-2.468;2024-01-25T09:39:38;27.13;;;6.13;;
22449;SDS011;11392;57.390;-2.468;2024-01-25T09:42:05;22.90;;;6.00;;
22449;SDS011;11392;57.390;-2.468;2024-01-25T09:44:34;19.73;;;6.07;;
22449;SDS011;11392;57.390;-2.468;2024-01-25T09:47:04;22.15;;;5.95;;
22449;SDS011;11392;57.390;-2.468;2024-01-25T09:49:36;18.58;;;6.38;;
22449;SDS011;11392;57.390;-2.468;2024-01-25T09:52:04;16.80;;;5.85;;
22449;SDS011;11392;57.390;-2.468;2024-01-25T09:54:35;25.23;;;5.25;;
22449;SDS011;11392;57.390;-2.468;2024-01-25T09:57:13;14.70;;;5.20;;
22449;SDS011;11392;57.390;-2.468;2024-01-25T09:59:45;18.15;;;6.45;;
22449;SDS011;11392;57.390;-2.468;2024-01-25T10:02:12;17.58;;;5.35;;
22449;SDS011;11392;57.390;-2.468;2024-01-25T10:04:40;18.25;;;5.80;;
22449;SDS011;11392;57.390;-2.468;2024-01-25T10:07:07;20.40;;;5.55;;
22449;SDS011;11392;57.390;-2.468;2024-01-25T10:09:40;17.88;;;5.57;;
22449;SDS011;11392;57.390;-2.468;2024-01-25T10:12:08;21.48;;;5.63;;
22449;SDS011;11392;57.390;-2.468;2024-01-25T10:14:44;9.75;;;4.78;;
22449;SDS011;11392;57.390;-2.468;2024-01-25T10:17:11;21.40;;;5.03;;
22449;SDS011;11392;57.390;-2.468;2024-01-25T10:19:42;13.68;;;5.00;;
22449;SDS011;11392;57.390;-2.468;2024-01-25T10:22:11;12.35;;;5.25;;
22449;SDS011;11392;57.390;-2.468;2024-01-25T10:24:41;22.02;;;6.07;;
22449;SDS011;11392;57.390;-2.468;2024-01-25T10:27:09;15.02;;;5.63;;
22449;SDS011;11392;57.390;-2.468;2024-01-25T10:29:37;15.82;;;4.72;;
22449;SDS011;11392;57.390;-2.468;2024-01-25T10:32:05;21.55;;;6.40;;
22449;SDS011;11392;57.390;-2.468;2024-01-25T10:34:38;12.57;;;5.03;;
22449;SDS011;11392;57.390;-2.468;2024-01-25T10:37:06;16.38;;;6.45;;
22449;SDS011;11392;57.390;-2.468;2024-01-25T10:39:34;18.65;;;5.60;;
22449;SDS011;11392;57.390;-2.468;2024-01-25T10:42:04;21.58;;;5.47;;
22449;SDS011;11392;57.390;-2.468;2024-01-25T10:44:31;12.35;;;4.93;;
22449;SDS011;11392;57.390;-2.468;2024-01-25T10:46:59;13.10;;;5.47;;
22449;SDS011;11392;57.390;-2.468;2024-01-25T10:49:26;16.83;;;5.78;;
22449;SDS011;11392;57.390;-2.468;2024-01-25T10:51:55;19.02;;;4.90;;
22449;SDS011;11392;57.390;-2.468;2024-01-25T10:54:23;15.10;;;4.50;;
22449;SDS011;11392;57.390;-2.468;2024-01-25T10:56:50;20.17;;;5.30;;
22449;SDS011;11392;57.390;-2.468;2024-01-25T10:59:19;20.75;;;4.63;;
22449;SDS011;11392;57.390;-2.468;2024-01-25T11:01:46;16.67;;;5.22;;
22449;SDS011;11392;57.390;-2.468;2024-01-25T11:04:15;26.23;;;5.82;;
22449;SDS011;11392;57.390;-2.468;2024-01-25T11:06:44;19.70;;;5.20;;
22449;SDS011;11392;57.390;-2.468;2024-01-25T11:09:19;15.30;;;5.28;;
22449;SDS011;11392;57.390;-2.468;2024-01-25T11:11:47;21.42;;;5.75;;
22449;SDS011;11392;57.390;-2.468;2024-01-25T11:14:15;23.05;;;6.15;;
22449;SDS011;11392;57.390;-2.468;2024-01-25T11:16:43;19.83;;;5.68;;
22449;SDS011;11392;57.390;-2.468;2024-01-25T11:19:21;15.93;;;4.78;;
22449;SDS011;11392;57.390;-2.468;2024-01-25T11:21:50;18.98;;;6.00;;
22449;SDS011;11392;57.390;-2.468;2024-01-25T11:24:22;21.20;;;6.00;;
22449;SDS011;11392;57.390;-2.468;2024-01-25T11:26:56;16.48;;;4.82;;
22449;SDS011;11392;57.390;-2.468;2024-01-25T11:29:24;17.80;;;4.15;;
22449;SDS011;11392;57.390;-2.468;2024-01-25T11:31:53;20.60;;;5.00;;
22449;SDS011;11392;57.390;-2.468;2024-01-25T11:34:20;22.25;;;6.85;;
22449;SDS011;11392;57.390;-2.468;2024-01-25T11:36:50;16.52;;;5.78;;
22449;SDS011;11392;57.390;-2.468;2024-01-25T11:39:17;15.63;;;4.82;;
22449;SDS011;11392;57.390;-2.468;2024-01-25T11:41:44;17.40;;;5.07;;
22449;SDS011;11392;57.390;-2.468;2024-01-25T11:44:12;10.73;;;3.33;;
22449;SDS011;11392;57.390;-2.468;2024-01-25T11:46:42;12.18;;;3.58;;
22449;SDS011;11392;57.390;-2.468;2024-01-25T11:49:10;16.17;;;4.40;;
22449;SDS011;11392;57.390;-2.468;2024-01-25T11:51:37;12.40;;;3.65;;
22449;SDS011;11392;57.390;-2.468;2024-01-25T11:54:05;11.38;;;3.08;;
22449;SDS011;11392;57.390;-2.468;2024-01-25T11:56:35;8.25;;;3.25;;
22449;SDS011;11392;57.390;-2.468;2024-01-25T11:59:08;13.15;;;3.67;;
22449;SDS011;11392;57.390;-2.468;2024-01-25T12:01:36;17.02;;;3.30;;
22449;SDS011;11392;57.390;-2.468;2024-01-25T12:04:04;15.40;;;3.15;;
22449;SDS011;11392;57.390;-2.468;2024-01-25T12:06:31;8.68;;;2.60;;
22449;SDS011;11392;57.390;-2.468;2024-01-25T12:09:09;20.92;;;4.07;;
22449;SDS011;11392;57.390;-2.468;2024-01-25T12:11:38;16.65;;;3.40;;
22449;SDS011;11392;57.390;-2.468;2024-01-25T12:14:07;12.07;;;3.47;;
22449;SDS011;11392;57.390;-2.468;2024-01-25T12:16:36;13.20;;;4.20;;
22449;SDS011;11392;57.390;-2.468;2024-01-25T12:19:05;8.55;;;2.53;;
22449;SDS011;11392;57.390;-2.468;2024-01-25T12:21:33;8.27;;;2.67;;
22449;SDS011;11392;57.390;-2.468;2024-01-25T12:24:01;9.88;;;2.65;;
22449;SDS011;11392;57.390;-2.468;2024-01-25T12:26:33;10.32;;;2.42;;
22449;SDS011;11392;57.390;-2.468;2024-01-25T12:29:04;7.93;;;2.50;;
22449;SDS011;11392;57.390;-2.468;2024-01-25T12:31:31;8.68;;;2.55;;
22449;SDS011;11392;57.390;-2.468;2024-01-25T12:34:02;9.25;;;2.60;;
22449;SDS011;11392;57.390;-2.468;2024-01-25T12:36:29;9.63;;;2.55;;
22449;SDS011;11392;57.390;-2.468;2024-01-25T12:38:56;15.05;;;2.83;;
22449;SDS011;11392;57.390;-2.468;2024-01-25T12:41:27;10.75;;;2.40;;
22449;SDS011;11392;57.390;-2.468;2024-01-25T12:43:54;12.07;;;3.13;;
22449;SDS011;11392;57.390;-2.468;2024-01-25T12:46:22;8.35;;;2.65;;
22449;SDS011;11392;57.390;-2.468;2024-01-25T12:48:54;4.88;;;2.58;;
22449;SDS011;11392;57.390;-2.468;2024-01-25T12:51:23;12.73;;;2.47;;
22449;SDS011;11392;57.390;-2.468;2024-01-25T12:53:51;14.02;;;2.97;;
22449;SDS011;11392;57.390;-2.468;2024-01-25T12:56:18;7.60;;;2.53;;
22449;SDS011;11392;57.390;-2.468;2024-01-25T12:58:46;8.43;;;2.58;;
22449;SDS011;11392;57.390;-2.468;2024-01-25T13:01:13;7.78;;;2.67;;
22449;SDS011;11392;57.390;-2.468;2024-01-25T13:03:42;8.63;;;3.00;;
22449;SDS011;11392;57.390;-2.468;2024-01-25T13:06:13;8.38;;;3.22;;
22449;SDS011;11392;57.390;-2.468;2024-01-25T13:08:40;8.60;;;2.65;;
22449;SDS011;11392;57.390;-2.468;2024-01-25T13:11:07;8.65;;;3.28;;
22449;SDS011;11392;57.390;-2.468;2024-01-25T13:13:35;11.75;;;3.15;;
22449;SDS011;11392;57.390;-2.468;2024-01-25T13:16:02;13.70;;;3.25;;
22449;SDS011;11392;57.390;-2.468;2024-01-25T13:18:29;12.02;;;3.22;;
22449;SDS011;11392;57.390;-2.468;2024-01-25T13:20:56;9.60;;;2.83;;
22449;SDS011;11392;57.390;-2.468;2024-01-25T13:23:23;11.02;;;2.97;;
22449;SDS011;11392;57.390;-2.468;2024-01-25T13:25:50;9.95;;;3.10;;
22449;SDS011;11392;57.390;-2.468;2024-01-25T13:28:18;8.73;;;2.97;;
22449;SDS011;11392;57.390;-2.468;2024-01-25T13:30:48;9.88;;;3.25;;
22449;SDS011;11392;57.390;-2.468;2024-01-25T13:33:16;10.80;;;2.97;;
22449;SDS011;11392;57.390;-2.468;2024-01-25T13:35:43;11.98;;;3.30;;
22449;SDS011;11392;57.390;-2.468;2024-01-25T13:38:10;9.25;;;3.08;;
22449;SDS011;11392;57.390;-2.468;2024-01-25T13:40:41;15.55;;;4.03;;
22449;SDS011;11392;57.390;-2.468;2024-01-25T13:43:08;10.73;;;5.00;;
22449;SDS011;11392;57.390;-2.468;2024-01-25T13:45:35;18.83;;;5.63;;
22449;SDS011;11392;57.390;-2.468;2024-01-25T13:48:02;11.27;;;4.18;;
22449;SDS011;11392;57.390;-2.468;2024-01-25T13:50:30;10.70;;;3.83;;
22449;SDS011;11392;57.390;-2.468;2024-01-25T13:52:57;12.57;;;4.13;;
22449;SDS011;11392;57.390;-2.468;2024-01-25T13:55:24;12.27;;;3.92;;
22449;SDS011;11392;57.390;-2.468;2024-01-25T13:57:51;11.73;;;4.00;;
22449;SDS011;11392;57.390;-2.468;2024-01-25T14:00:18;18.55;;;4.03;;
22449;SDS011;11392;57.390;-2.468;2024-01-25T14:02:45;9.88;;;2.90;;
22449;SDS011;11392;57.390;-2.468;2024-01-25T14:05:13;9.25;;;3.00;;
22449;SDS011;11392;57.390;-2.468;2024-01-25T14:07:44;7.18;;;2.92;;
22449;SDS011;11392;57.390;-2.468;2024-01-25T14:10:12;10.77;;;2.92;;
22449;SDS011;11392;57.390;-2.468;2024-01-25T14:12:39;9.73;;;2.65;;
22449;SDS011;11392;57.390;-2.468;2024-01-25T14:15:07;9.82;;;2.78;;
22449;SDS011;11392;57.390;-2.468;2024-01-25T14:17:34;10.07;;;3.20;;
22449;SDS011;11392;57.390;-2.468;2024-01-25T14:20:03;8.10;;;3.13;;
22449;SDS011;11392;57.390;-2.468;2024-01-25T14:22:31;14.20;;;3.38;;
22449;SDS011;11392;57.390;-2.468;2024-01-25T14:25:02;10.50;;;3.50;;
22449;SDS011;11392;57.390;-2.468;2024-01-25T14:27:30;8.77;;;3.05;;
22449;SDS011;11392;57.390;-2.468;2024-01-25T14:29:57;7.75;;;2.92;;
22449;SDS011;11392;57.390;-2.468;2024-01-25T14:32:26;8.75;;;2.80;;